Impacts TAF Board
For situational awareness. Not to be used for flight planning purposes.
IDs:

KPIT - Pittsburgh Intl, PA, US

Issued at 2320 UTC 19 Jul 2019
Updated at 0114 UTC 20 Jul 2019
Potential Impact None Slight Moderate High
Time<<20/14Z 20/15Z 20/16Z 20/17Z 20/18Z 20/19Z 20/20Z 20/21Z 20/22Z 20/23Z 21/00Z 21/01Z 21/02Z>>
Type PRVL PRVL PRVL PRVL PRVL PRVL PRVL PRVL PRVL PRVL PRVL PRVL PRVL
VIS >6 >6 >6 >6 >6 >6 >6 >6 >6 >6 >6 >6 >6
CIG 15 15 -- -- -- -- -- -- -- -- -- -- --
Cover BKN BKN SCT SCT SCT SCT SCT SCT SCT SCT SCT SCT SCT
FltCat MVFR MVFR VFR VFR VFR VFR VFR VFR VFR VFR VFR VFR VFR
WX -- -- -- -- -- -- -- -- -- -- -- -- --
WDir 250 250 240 240 240 240 240 240 240 240 240 240 240
WSpd 6 6 10 10 10 10 10 10 10 10 10 4 4
WGst -- -- -- -- -- -- -- -- -- -- -- -- --
Raw TAF
KPIT 192320Z 2000/2106 23008KT P6SM SCT035
  FM200100 24005KT P6SM SKC
  FM201100 25006KT P6SM BKN015
  FM201600 24010KT P6SM SCT030
  FM210100 24004KT P6SM SCT250


METAR Board
Radar Display
Forecast Discussion
For situational awareness. Not to be used for flight planning purposes.